sensor_id;sensor_type;location;lat;lon;timestamp;pressure;altitude;pressure_sealevel;temperature;humidity
63568;BME280;49715;42.386;20.434;2022-12-07T00:00:02;97360.09;;;7.55;73.67
63568;BME280;49715;42.386;20.434;2022-12-07T00:02:30;97359.28;;;7.55;73.56
63568;BME280;49715;42.386;20.434;2022-12-07T00:04:56;97359.56;;;7.52;73.72
63568;BME280;49715;42.386;20.434;2022-12-07T00:07:23;97353.44;;;7.51;73.66
63568;BME280;49715;42.386;20.434;2022-12-07T00:09:49;97349.31;;;7.48;73.80
63568;BME280;49715;42.386;20.434;2022-12-07T00:12:15;97349.56;;;7.45;73.76
63568;BME280;49715;42.386;20.434;2022-12-07T00:14:41;97342.81;;;7.43;74.00
63568;BME280;49715;42.386;20.434;2022-12-07T00:17:07;97346.53;;;7.40;74.13
63568;BME280;49715;42.386;20.434;2022-12-07T00:19:33;97351.09;;;7.38;74.01
63568;BME280;49715;42.386;20.434;2022-12-07T00:21:59;97349.53;;;7.36;74.09
63568;BME280;49715;42.386;20.434;2022-12-07T00:24:25;97354.78;;;7.36;74.12
63568;BME280;49715;42.386;20.434;2022-12-07T00:26:51;97347.88;;;7.35;73.98
63568;BME280;49715;42.386;20.434;2022-12-07T00:29:18;97355.91;;;7.33;74.22
63568;BME280;49715;42.386;20.434;2022-12-07T00:31:45;97352.69;;;7.30;73.94
63568;BME280;49715;42.386;20.434;2022-12-07T00:34:12;97352.00;;;7.28;73.95
63568;BME280;49715;42.386;20.434;2022-12-07T00:36:39;97359.44;;;7.22;74.11
63568;BME280;49715;42.386;20.434;2022-12-07T00:39:05;97361.34;;;7.20;74.43
63568;BME280;49715;42.386;20.434;2022-12-07T00:41:31;97359.84;;;7.18;74.50
63568;BME280;49715;42.386;20.434;2022-12-07T00:43:57;97350.19;;;7.18;74.47
63568;BME280;49715;42.386;20.434;2022-12-07T00:46:24;97349.47;;;7.16;74.22
63568;BME280;49715;42.386;20.434;2022-12-07T00:48:51;97341.72;;;7.15;74.18
63568;BME280;49715;42.386;20.434;2022-12-07T00:51:18;97343.78;;;7.11;74.33
63568;BME280;49715;42.386;20.434;2022-12-07T00:53:45;97330.81;;;7.10;74.63
63568;BME280;49715;42.386;20.434;2022-12-07T00:56:12;97331.50;;;7.12;74.75
63568;BME280;49715;42.386;20.434;2022-12-07T00:58:38;97329.59;;;7.14;74.58
63568;BME280;49715;42.386;20.434;2022-12-07T01:01:05;97330.28;;;7.16;74.64
63568;BME280;49715;42.386;20.434;2022-12-07T01:03:31;97336.09;;;7.19;74.32
63568;BME280;49715;42.386;20.434;2022-12-07T01:05:58;97330.03;;;7.19;74.64
63568;BME280;49715;42.386;20.434;2022-12-07T01:08:24;97326.59;;;7.18;74.23
63568;BME280;49715;42.386;20.434;2022-12-07T01:11:01;97328.50;;;7.16;74.30
63568;BME280;49715;42.386;20.434;2022-12-07T01:13:28;97329.31;;;7.17;74.38
63568;BME280;49715;42.386;20.434;2022-12-07T01:15:56;97334.44;;;7.18;74.32
63568;BME280;49715;42.386;20.434;2022-12-07T01:18:22;97337.75;;;7.20;74.24
63568;BME280;49715;42.386;20.434;2022-12-07T01:23:27;97333.47;;;7.19;74.14
63568;BME280;49715;42.386;20.434;2022-12-07T01:25:54;97326.59;;;7.18;74.24
63568;BME280;49715;42.386;20.434;2022-12-07T01:28:20;97317.91;;;7.18;74.29
63568;BME280;49715;42.386;20.434;2022-12-07T01:30:54;97318.72;;;7.18;74.09
63568;BME280;49715;42.386;20.434;2022-12-07T01:33:20;97302.41;;;7.15;74.32
63568;BME280;49715;42.386;20.434;2022-12-07T01:35:46;97306.84;;;7.14;74.15
63568;BME280;49715;42.386;20.434;2022-12-07T01:38:12;97315.66;;;7.13;74.26
63568;BME280;49715;42.386;20.434;2022-12-07T01:40:38;97313.97;;;7.12;74.25
63568;BME280;49715;42.386;20.434;2022-12-07T01:43:12;97319.22;;;7.12;74.47
63568;BME280;49715;42.386;20.434;2022-12-07T01:45:40;97312.31;;;7.11;74.30
63568;BME280;49715;42.386;20.434;2022-12-07T01:48:07;97302.81;;;7.10;74.40
63568;BME280;49715;42.386;20.434;2022-12-07T01:50:35;97308.19;;;7.09;74.68
63568;BME280;49715;42.386;20.434;2022-12-07T01:53:03;97303.63;;;7.11;74.89
63568;BME280;49715;42.386;20.434;2022-12-07T01:55:31;97305.19;;;7.13;74.71
63568;BME280;49715;42.386;20.434;2022-12-07T01:57:58;97303.09;;;7.17;74.64
63568;BME280;49715;42.386;20.434;2022-12-07T02:00:24;97309.06;;;7.19;74.58
63568;BME280;49715;42.386;20.434;2022-12-07T02:05:19;97302.84;;;7.20;74.55
63568;BME280;49715;42.386;20.434;2022-12-07T02:07:46;97291.50;;;7.10;74.70
63568;BME280;49715;42.386;20.434;2022-12-07T02:12:39;97294.41;;;7.16;74.58
63568;BME280;49715;42.386;20.434;2022-12-07T02:15:06;97295.97;;;7.19;74.71
63568;BME280;49715;42.386;20.434;2022-12-07T02:17:55;97293.47;;;7.17;74.58
63568;BME280;49715;42.386;20.434;2022-12-07T02:27:57;97294.31;;;7.18;74.75
63568;BME280;49715;42.386;20.434;2022-12-07T02:30:26;97287.25;;;7.18;74.64
63568;BME280;49715;42.386;20.434;2022-12-07T02:40:34;97282.28;;;7.15;74.74
63568;BME280;49715;42.386;20.434;2022-12-07T02:43:03;97271.94;;;7.14;75.02
63568;BME280;49715;42.386;20.434;2022-12-07T02:45:30;97275.25;;;7.16;74.74
63568;BME280;49715;42.386;20.434;2022-12-07T02:47:57;97277.75;;;7.17;74.92
63568;BME280;49715;42.386;20.434;2022-12-07T02:50:25;97280.22;;;7.19;74.72
63568;BME280;49715;42.386;20.434;2022-12-07T02:52:51;97274.84;;;7.20;74.65
63568;BME280;49715;42.386;20.434;2022-12-07T02:55:18;97275.66;;;7.21;74.45
63568;BME280;49715;42.386;20.434;2022-12-07T02:57:49;97272.38;;;7.19;74.71
63568;BME280;49715;42.386;20.434;2022-12-07T03:00:19;97276.78;;;7.18;74.58
63568;BME280;49715;42.386;20.434;2022-12-07T03:05:14;97273.19;;;7.19;74.18
63568;BME280;49715;42.386;20.434;2022-12-07T03:10:19;97283.94;;;7.16;74.40
63568;BME280;49715;42.386;20.434;2022-12-07T03:15:41;97274.41;;;7.15;74.64
63568;BME280;49715;42.386;20.434;2022-12-07T03:18:07;97263.53;;;7.20;74.69
63568;BME280;49715;42.386;20.434;2022-12-07T03:20:35;97269.47;;;7.22;74.34
63568;BME280;49715;42.386;20.434;2022-12-07T03:23:04;97271.81;;;7.25;74.48
63568;BME280;49715;42.386;20.434;2022-12-07T03:25:31;97269.06;;;7.27;74.47
63568;BME280;49715;42.386;20.434;2022-12-07T03:28:01;97265.34;;;7.29;74.38
63568;BME280;49715;42.386;20.434;2022-12-07T03:30:29;97262.47;;;7.32;74.41
63568;BME280;49715;42.386;20.434;2022-12-07T03:33:00;97259.72;;;7.34;74.18
63568;BME280;49715;42.386;20.434;2022-12-07T03:35:31;97262.47;;;7.32;74.29
63568;BME280;49715;42.386;20.434;2022-12-07T03:38:00;97259.00;;;7.32;74.35
63568;BME280;49715;42.386;20.434;2022-12-07T03:42:59;97253.34;;;7.36;74.50
63568;BME280;49715;42.386;20.434;2022-12-07T03:45:37;97254.91;;;7.39;74.55
63568;BME280;49715;42.386;20.434;2022-12-07T03:53:01;97253.53;;;7.44;74.52
63568;BME280;49715;42.386;20.434;2022-12-07T03:55:29;97249.94;;;7.45;74.63
63568;BME280;49715;42.386;20.434;2022-12-07T03:58:01;97247.19;;;7.47;74.37
63568;BME280;49715;42.386;20.434;2022-12-07T04:00:29;97248.00;;;7.47;74.54
63568;BME280;49715;42.386;20.434;2022-12-07T04:02:55;97248.84;;;7.48;74.31
63568;BME280;49715;42.386;20.434;2022-12-07T04:05:21;97247.88;;;7.49;74.44
63568;BME280;49715;42.386;20.434;2022-12-07T04:07:48;97245.94;;;7.51;74.32
63568;BME280;49715;42.386;20.434;2022-12-07T04:10:14;97247.47;;;7.54;74.22
63568;BME280;49715;42.386;20.434;2022-12-07T04:12:40;97245.53;;;7.56;74.24
63568;BME280;49715;42.386;20.434;2022-12-07T04:15:06;97241.81;;;7.58;73.79
63568;BME280;49715;42.386;20.434;2022-12-07T04:17:33;97239.34;;;7.57;73.71
63568;BME280;49715;42.386;20.434;2022-12-07T04:19:59;97241.97;;;7.57;73.95
63568;BME280;49715;42.386;20.434;2022-12-07T04:22:25;97237.53;;;7.57;74.00
63568;BME280;49715;42.386;20.434;2022-12-07T04:24:51;97232.41;;;7.56;74.06
63568;BME280;49715;42.386;20.434;2022-12-07T04:27:17;97230.75;;;7.55;74.16
63568;BME280;49715;42.386;20.434;2022-12-07T04:29:43;97232.69;;;7.53;74.44
63568;BME280;49715;42.386;20.434;2022-12-07T04:32:09;97220.97;;;7.47;74.37
63568;BME280;49715;42.386;20.434;2022-12-07T04:34:36;97224.84;;;7.53;74.46
63568;BME280;49715;42.386;20.434;2022-12-07T04:37:02;97222.47;;;7.49;74.34
63568;BME280;49715;42.386;20.434;2022-12-07T04:39:28;97219.84;;;7.49;74.27
63568;BME280;49715;42.386;20.434;2022-12-07T04:41:55;97213.94;;;7.47;74.61
63568;BME280;49715;42.386;20.434;2022-12-07T04:44:22;97217.38;;;7.48;74.45
63568;BME280;49715;42.386;20.434;2022-12-07T04:46:48;97219.69;;;7.51;74.50
63568;BME280;49715;42.386;20.434;2022-12-07T04:49:15;97217.94;;;7.52;74.46
63568;BME280;49715;42.386;20.434;2022-12-07T04:51:41;97210.19;;;7.50;74.35
63568;BME280;49715;42.386;20.434;2022-12-07T04:54:08;97214.88;;;7.46;74.16
63568;BME280;49715;42.386;20.434;2022-12-07T04:56:34;97216.81;;;7.44;74.24
63568;BME280;49715;42.386;20.434;2022-12-07T04:59:01;97212.38;;;7.45;74.64
63568;BME280;49715;42.386;20.434;2022-12-07T05:01:27;97222.63;;;7.48;74.52
63568;BME280;49715;42.386;20.434;2022-12-07T05:03:53;97221.66;;;7.49;73.94
63568;BME280;49715;42.386;20.434;2022-12-07T05:06:19;97216.53;;;7.47;73.99
63568;BME280;49715;42.386;20.434;2022-12-07T05:08:46;97222.06;;;7.44;74.27
63568;BME280;49715;42.386;20.434;2022-12-07T05:11:12;97211.72;;;7.43;74.27
63568;BME280;49715;42.386;20.434;2022-12-07T05:13:58;97214.44;;;7.41;74.02
63568;BME280;49715;42.386;20.434;2022-12-07T05:16:25;97224.00;;;7.42;74.41
63568;BME280;49715;42.386;20.434;2022-12-07T05:18:51;97225.50;;;7.45;74.26
63568;BME280;49715;42.386;20.434;2022-12-07T05:21:18;97228.69;;;7.48;74.08
63568;BME280;49715;42.386;20.434;2022-12-07T05:23:44;97227.72;;;7.49;74.16
63568;BME280;49715;42.386;20.434;2022-12-07T05:26:11;97222.47;;;7.49;74.26
63568;BME280;49715;42.386;20.434;2022-12-07T05:28:37;97221.50;;;7.51;74.38
63568;BME280;49715;42.386;20.434;2022-12-07T05:31:03;97217.94;;;7.52;74.24
63568;BME280;49715;42.386;20.434;2022-12-07T05:33:29;97209.94;;;7.53;74.14
63568;BME280;49715;42.386;20.434;2022-12-07T05:35:55;97213.38;;;7.54;74.09
63568;BME280;49715;42.386;20.434;2022-12-07T05:38:21;97219.28;;;7.56;74.08
63568;BME280;49715;42.386;20.434;2022-12-07T05:40:47;97220.00;;;7.58;73.85
63568;BME280;49715;42.386;20.434;2022-12-07T05:43:14;97213.22;;;7.55;73.76
63568;BME280;49715;42.386;20.434;2022-12-07T05:45:40;97212.53;;;7.53;73.80
63568;BME280;49715;42.386;20.434;2022-12-07T05:48:06;97218.88;;;7.51;74.15
63568;BME280;49715;42.386;20.434;2022-12-07T05:50:32;97215.16;;;7.53;74.17
63568;BME280;49715;42.386;20.434;2022-12-07T05:53:02;97215.16;;;7.53;74.05
63568;BME280;49715;42.386;20.434;2022-12-07T05:55:28;97211.56;;;7.54;74.04
63568;BME280;49715;42.386;20.434;2022-12-07T05:57:54;97217.78;;;7.53;73.93
63568;BME280;49715;42.386;20.434;2022-12-07T06:00:39;97215.16;;;7.53;74.24
63568;BME280;49715;42.386;20.434;2022-12-07T06:03:05;97217.94;;;7.52;74.27
63568;BME280;49715;42.386;20.434;2022-12-07T06:05:31;97206.47;;;7.53;73.96
63568;BME280;49715;42.386;20.434;2022-12-07T06:07:57;97212.53;;;7.53;74.11
63568;BME280;49715;42.386;20.434;2022-12-07T06:10:23;97216.66;;;7.56;74.21
63568;BME280;49715;42.386;20.434;2022-12-07T06:12:49;97219.03;;;7.59;74.14
63568;BME280;49715;42.386;20.434;2022-12-07T06:15:15;97221.41;;;7.62;74.19
63568;BME280;49715;42.386;20.434;2022-12-07T06:17:41;97218.47;;;7.65;74.09
63568;BME280;49715;42.386;20.434;2022-12-07T06:20:07;97213.78;;;7.68;74.00
63568;BME280;49715;42.386;20.434;2022-12-07T06:22:34;97210.91;;;7.71;74.04
63568;BME280;49715;42.386;20.434;2022-12-07T06:25:00;97220.44;;;7.72;74.00
63568;BME280;49715;42.386;20.434;2022-12-07T06:27:27;97218.47;;;7.74;73.99
63568;BME280;49715;42.386;20.434;2022-12-07T06:29:53;97217.38;;;7.77;74.23
63568;BME280;49715;42.386;20.434;2022-12-07T06:32:19;97224.28;;;7.78;74.22
63568;BME280;49715;42.386;20.434;2022-12-07T06:34:45;97218.78;;;7.81;74.06
63568;BME280;49715;42.386;20.434;2022-12-07T06:37:13;97217.66;;;7.84;74.15
63568;BME280;49715;42.386;20.434;2022-12-07T06:39:39;97230.63;;;7.85;74.19
63568;BME280;49715;42.386;20.434;2022-12-07T06:42:05;97232.31;;;7.86;74.08
63568;BME280;49715;42.386;20.434;2022-12-07T06:44:31;97227.59;;;7.90;73.89
63568;BME280;49715;42.386;20.434;2022-12-07T06:46:58;97227.47;;;7.91;73.91
63568;BME280;49715;42.386;20.434;2022-12-07T06:49:24;97223.72;;;7.94;73.75
63568;BME280;49715;42.386;20.434;2022-12-07T06:51:51;97226.22;;;7.95;73.49
63568;BME280;49715;42.386;20.434;2022-12-07T06:54:17;97228.72;;;7.97;73.46
63568;BME280;49715;42.386;20.434;2022-12-07T06:56:44;97223.59;;;7.95;73.49
63568;BME280;49715;42.386;20.434;2022-12-07T06:59:11;97226.22;;;7.95;73.49
63568;BME280;49715;42.386;20.434;2022-12-07T07:01:39;97212.41;;;7.93;73.11
63568;BME280;49715;42.386;20.434;2022-12-07T07:04:05;97201.50;;;7.88;73.27
63568;BME280;49715;42.386;20.434;2022-12-07T07:06:31;97210.19;;;7.89;73.40
63568;BME280;49715;42.386;20.434;2022-12-07T07:08:57;97221.41;;;7.91;73.50
63568;BME280;49715;42.386;20.434;2022-12-07T07:11:24;97224.56;;;7.94;73.82
63568;BME280;49715;42.386;20.434;2022-12-07T07:13:50;97220.53;;;8.00;73.63
63568;BME280;49715;42.386;20.434;2022-12-07T07:16:16;97226.91;;;8.07;73.28
63568;BME280;49715;42.386;20.434;2022-12-07T07:18:43;97230.59;;;8.14;73.27
63568;BME280;49715;42.386;20.434;2022-12-07T07:21:09;97212.53;;;8.11;73.44
63568;BME280;49715;42.386;20.434;2022-12-07T07:23:35;97230.59;;;8.24;73.44
63568;BME280;49715;42.386;20.434;2022-12-07T07:26:05;97235.31;;;8.30;73.46
63568;BME280;49715;42.386;20.434;2022-12-07T07:28:31;97233.78;;;8.37;73.15
63568;BME280;49715;42.386;20.434;2022-12-07T07:31:01;97228.66;;;8.45;72.96
63568;BME280;49715;42.386;20.434;2022-12-07T07:33:29;97227.13;;;8.52;72.81
63568;BME280;49715;42.386;20.434;2022-12-07T07:35:55;97226.69;;;8.57;72.77
63568;BME280;49715;42.386;20.434;2022-12-07T07:38:22;97226.13;;;8.54;72.38
63568;BME280;49715;42.386;20.434;2022-12-07T07:40:48;97222.00;;;8.51;72.79
63568;BME280;49715;42.386;20.434;2022-12-07T07:43:17;97211.22;;;8.54;72.87
63568;BME280;49715;42.386;20.434;2022-12-07T07:45:44;97218.13;;;8.55;73.07
63568;BME280;49715;42.386;20.434;2022-12-07T07:48:11;97216.88;;;8.59;73.30
63568;BME280;49715;42.386;20.434;2022-12-07T07:50:37;97224.19;;;8.65;73.43
63568;BME280;49715;42.386;20.434;2022-12-07T07:53:03;97229.00;;;8.70;73.49
63568;BME280;49715;42.386;20.434;2022-12-07T07:55:30;97226.91;;;8.73;73.46
63568;BME280;49715;42.386;20.434;2022-12-07T07:57:56;97226.63;;;8.76;73.58
63568;BME280;49715;42.386;20.434;2022-12-07T08:00:22;97231.88;;;8.76;73.18
63568;BME280;49715;42.386;20.434;2022-12-07T08:02:48;97238.13;;;8.75;73.04
63568;BME280;49715;42.386;20.434;2022-12-07T08:05:15;97234.13;;;8.71;72.85
63568;BME280;49715;42.386;20.434;2022-12-07T08:07:43;97222.22;;;8.67;72.86
63568;BME280;49715;42.386;20.434;2022-12-07T08:10:10;97212.16;;;8.63;73.05
63568;BME280;49715;42.386;20.434;2022-12-07T08:12:38;97215.47;;;8.65;73.11
63568;BME280;49715;42.386;20.434;2022-12-07T08:15:52;97209.09;;;8.67;73.57
63568;BME280;49715;42.386;20.434;2022-12-07T08:18:18;97217.78;;;8.68;73.66
63568;BME280;49715;42.386;20.434;2022-12-07T08:20:44;97207.28;;;8.68;73.27
63568;BME280;49715;42.386;20.434;2022-12-07T08:23:11;97209.91;;;8.68;73.61
63568;BME280;49715;42.386;20.434;2022-12-07T08:25:37;97208.50;;;8.73;73.79
63568;BME280;49715;42.386;20.434;2022-12-07T08:28:05;97201.88;;;8.79;73.85
63568;BME280;49715;42.386;20.434;2022-12-07T08:30:31;97203.22;;;8.83;73.58
63568;BME280;49715;42.386;20.434;2022-12-07T08:32:58;97189.13;;;8.84;73.57
63568;BME280;49715;42.386;20.434;2022-12-07T08:35:25;97207.47;;;8.94;73.44
63568;BME280;49715;42.386;20.434;2022-12-07T08:37:52;97206.78;;;8.92;73.36
63568;BME280;49715;42.386;20.434;2022-12-07T08:40:18;97211.75;;;8.95;73.23
63568;BME280;49715;42.386;20.434;2022-12-07T08:42:50;97213.63;;;9.02;73.41
63568;BME280;49715;42.386;20.434;2022-12-07T08:45:18;97197.81;;;9.12;73.09
63568;BME280;49715;42.386;20.434;2022-12-07T08:47:46;97211.50;;;9.16;73.10
63568;BME280;49715;42.386;20.434;2022-12-07T08:50:16;97198.19;;;9.17;73.13
63568;BME280;49715;42.386;20.434;2022-12-07T08:52:42;97202.19;;;9.21;73.19
63568;BME280;49715;42.386;20.434;2022-12-07T08:55:10;97199.94;;;9.26;73.19
63568;BME280;49715;42.386;20.434;2022-12-07T08:57:37;97196.88;;;9.31;73.47
63568;BME280;49715;42.386;20.434;2022-12-07T09:00:04;97191.63;;;9.31;73.13
63568;BME280;49715;42.386;20.434;2022-12-07T09:02:31;97199.38;;;9.33;73.52
63568;BME280;49715;42.386;20.434;2022-12-07T09:04:57;97197.25;;;9.36;73.57
63568;BME280;49715;42.386;20.434;2022-12-07T09:07:24;97201.56;;;9.37;73.44
63568;BME280;49715;42.386;20.434;2022-12-07T09:09:51;97197.63;;;9.41;73.46
63568;BME280;49715;42.386;20.434;2022-12-07T09:12:18;97191.94;;;9.46;73.39
63568;BME280;49715;42.386;20.434;2022-12-07T09:14:44;97194.50;;;9.55;73.47
63568;BME280;49715;42.386;20.434;2022-12-07T09:17:11;97194.19;;;9.59;73.49
63568;BME280;49715;42.386;20.434;2022-12-07T09:19:37;97193.91;;;9.62;73.16
63568;BME280;49715;42.386;20.434;2022-12-07T09:22:04;97196.22;;;9.65;72.84
63568;BME280;49715;42.386;20.434;2022-12-07T09:24:32;97180.81;;;9.70;73.12
63568;BME280;49715;42.386;20.434;2022-12-07T09:26:58;97182.69;;;9.77;72.88
63568;BME280;49715;42.386;20.434;2022-12-07T09:29:25;97171.09;;;9.88;72.73
63568;BME280;49715;42.386;20.434;2022-12-07T09:31:52;97178.38;;;9.94;72.65
63568;BME280;49715;42.386;20.434;2022-12-07T09:34:18;97179.06;;;9.96;72.48
63568;BME280;49715;42.386;20.434;2022-12-07T09:36:45;97170.34;;;9.96;72.55
63568;BME280;49715;42.386;20.434;2022-12-07T09:39:16;97158.16;;;9.95;72.51
63568;BME280;49715;42.386;20.434;2022-12-07T09:41:44;97160.94;;;9.93;72.31
63568;BME280;49715;42.386;20.434;2022-12-07T09:44:14;97169.00;;;9.92;72.44
63568;BME280;49715;42.386;20.434;2022-12-07T09:46:43;97167.34;;;9.91;72.53
63568;BME280;49715;42.386;20.434;2022-12-07T09:49:16;97153.50;;;9.89;72.32
63568;BME280;49715;42.386;20.434;2022-12-07T09:51:44;97143.44;;;9.84;72.47
63568;BME280;49715;42.386;20.434;2022-12-07T09:54:12;97146.22;;;9.83;72.31
63568;BME280;49715;42.386;20.434;2022-12-07T09:56:39;97153.75;;;9.77;72.43
63568;BME280;49715;42.386;20.434;2022-12-07T09:59:05;97149.94;;;9.72;72.44
63568;BME280;49715;42.386;20.434;2022-12-07T10:01:32;97149.41;;;9.68;72.67
63568;BME280;49715;42.386;20.434;2022-12-07T10:04:09;97144.66;;;9.72;72.82
63568;BME280;49715;42.386;20.434;2022-12-07T10:06:36;97144.03;;;9.78;73.04
63568;BME280;49715;42.386;20.434;2022-12-07T10:09:12;97135.16;;;9.79;72.86
63568;BME280;49715;42.386;20.434;2022-12-07T10:14:24;97122.00;;;9.79;72.63
63568;BME280;49715;42.386;20.434;2022-12-07T10:16:53;97123.06;;;9.86;72.78
63568;BME280;49715;42.386;20.434;2022-12-07T10:22:05;97126.91;;;10.00;72.61
63568;BME280;49715;42.386;20.434;2022-12-07T10:24:34;97128.25;;;10.04;72.72
63568;BME280;49715;42.386;20.434;2022-12-07T10:27:03;97138.13;;;10.02;72.86
63568;BME280;49715;42.386;20.434;2022-12-07T10:32:03;97110.41;;;9.90;72.62
63568;BME280;49715;42.386;20.434;2022-12-07T10:39:49;97110.84;;;9.85;73.18
63568;BME280;49715;42.386;20.434;2022-12-07T10:42:20;97106.91;;;9.81;73.09
63568;BME280;49715;42.386;20.434;2022-12-07T10:44:48;97104.72;;;9.76;72.96
63568;BME280;49715;42.386;20.434;2022-12-07T10:47:19;97109.47;;;9.73;72.87
63568;BME280;49715;42.386;20.434;2022-12-07T10:49:57;97109.63;;;9.71;72.95
63568;BME280;49715;42.386;20.434;2022-12-07T11:02:51;97087.13;;;9.77;73.43
63568;BME280;49715;42.386;20.434;2022-12-07T11:15:24;97072.19;;;9.86;73.02
63568;BME280;49715;42.386;20.434;2022-12-07T11:17:55;97064.00;;;9.89;73.23
63568;BME280;49715;42.386;20.434;2022-12-07T11:36:03;97060.44;;;9.98;72.60
63568;BME280;49715;42.386;20.434;2022-12-07T11:38:43;97051.88;;;9.96;72.91
63568;BME280;49715;42.386;20.434;2022-12-07T11:41:10;97056.00;;;9.98;72.79
63568;BME280;49715;42.386;20.434;2022-12-07T11:46:26;97057.63;;;9.99;72.69
63568;BME280;49715;42.386;20.434;2022-12-07T11:51:20;97047.94;;;10.00;72.87
63568;BME280;49715;42.386;20.434;2022-12-07T11:56:17;97043.19;;;10.03;72.93
63568;BME280;49715;42.386;20.434;2022-12-07T12:03:50;97047.56;;;9.87;72.97
63568;BME280;49715;42.386;20.434;2022-12-07T12:06:18;97044.22;;;9.85;73.07
63568;BME280;49715;42.386;20.434;2022-12-07T12:08:46;97057.25;;;9.86;73.24
63568;BME280;49715;42.386;20.434;2022-12-07T12:21:47;97021.13;;;10.30;73.25
63568;BME280;49715;42.386;20.434;2022-12-07T12:24:18;97023.94;;;10.37;73.19
63568;BME280;49715;42.386;20.434;2022-12-07T12:26:51;97020.53;;;10.45;73.03
63568;BME280;49715;42.386;20.434;2022-12-07T12:29:19;97018.72;;;10.53;72.88
63568;BME280;49715;42.386;20.434;2022-12-07T12:31:47;97026.50;;;10.63;72.87
63568;BME280;49715;42.386;20.434;2022-12-07T12:42:47;97020.00;;;11.00;72.23
63568;BME280;49715;42.386;20.434;2022-12-07T12:45:31;97019.31;;;10.98;72.22
63568;BME280;49715;42.386;20.434;2022-12-07T12:48:02;97003.50;;;10.98;72.14
63568;BME280;49715;42.386;20.434;2022-12-07T12:50:30;96996.25;;;11.00;72.17
63568;BME280;49715;42.386;20.434;2022-12-07T12:53:00;97000.38;;;11.02;72.13
63568;BME280;49715;42.386;20.434;2022-12-07T12:58:31;96991.97;;;10.99;72.14
63568;BME280;49715;42.386;20.434;2022-12-07T13:03:51;97000.19;;;10.88;71.95
63568;BME280;49715;42.386;20.434;2022-12-07T13:06:19;96998.38;;;10.80;72.23
63568;BME280;49715;42.386;20.434;2022-12-07T13:08:45;97008.59;;;10.75;72.11
63568;BME280;49715;42.386;20.434;2022-12-07T13:11:25;96998.34;;;10.72;72.28
63568;BME280;49715;42.386;20.434;2022-12-07T13:14:34;96996.72;;;10.71;72.44
63568;BME280;49715;42.386;20.434;2022-12-07T13:16:41;96999.66;;;10.68;71.87
63568;BME280;49715;42.386;20.434;2022-12-07T13:21:54;97010.50;;;10.56;72.64
63568;BME280;49715;42.386;20.434;2022-12-07T13:24:23;97005.72;;;10.52;72.80
63568;BME280;49715;42.386;20.434;2022-12-07T13:26:51;97001.75;;;10.48;72.62
63568;BME280;49715;42.386;20.434;2022-12-07T13:29:22;97005.22;;;10.48;72.93
63568;BME280;49715;42.386;20.434;2022-12-07T13:31:52;96997.47;;;10.47;72.89
63568;BME280;49715;42.386;20.434;2022-12-07T13:34:28;96995.00;;;10.45;73.08
63568;BME280;49715;42.386;20.434;2022-12-07T13:36:55;96999.75;;;10.42;73.27
63568;BME280;49715;42.386;20.434;2022-12-07T13:39:25;96997.44;;;10.39;72.73
63568;BME280;49715;42.386;20.434;2022-12-07T13:41:56;97000.06;;;10.30;72.64
63568;BME280;49715;42.386;20.434;2022-12-07T13:44:33;96994.94;;;10.29;72.92
63568;BME280;49715;42.386;20.434;2022-12-07T13:49:28;96993.91;;;10.22;72.97
63568;BME280;49715;42.386;20.434;2022-12-07T13:51:54;96992.78;;;10.24;73.04
63568;BME280;49715;42.386;20.434;2022-12-07T13:54:32;97004.16;;;10.25;72.84
63568;BME280;49715;42.386;20.434;2022-12-07T13:57:02;96998.72;;;10.26;72.75
63568;BME280;49715;42.386;20.434;2022-12-07T13:59:28;96997.75;;;10.27;72.61
63568;BME280;49715;42.386;20.434;2022-12-07T14:01:57;97001.03;;;10.29;72.72
63568;BME280;49715;42.386;20.434;2022-12-07T14:04:33;97000.72;;;10.32;72.42
63568;BME280;49715;42.386;20.434;2022-12-07T14:07:01;96994.47;;;10.34;72.48
63568;BME280;49715;42.386;20.434;2022-12-07T14:09:58;96995.16;;;10.36;72.60
63568;BME280;49715;42.386;20.434;2022-12-07T14:12:25;96994.16;;;10.37;72.62
63568;BME280;49715;42.386;20.434;2022-12-07T14:14:52;96992.34;;;10.37;72.49
63568;BME280;49715;42.386;20.434;2022-12-07T14:17:21;96995.78;;;10.38;72.32
63568;BME280;49715;42.386;20.434;2022-12-07T14:20:03;96999.72;;;10.34;72.38
63568;BME280;49715;42.386;20.434;2022-12-07T14:22:34;97000.88;;;10.31;72.37
63568;BME280;49715;42.386;20.434;2022-12-07T14:27:50;97004.00;;;10.26;72.42
63568;BME280;49715;42.386;20.434;2022-12-07T14:30:17;96998.03;;;10.24;72.46
63568;BME280;49715;42.386;20.434;2022-12-07T14:32:43;96996.25;;;10.25;72.40
63568;BME280;49715;42.386;20.434;2022-12-07T14:35:15;96993.72;;;10.23;72.55
63568;BME280;49715;42.386;20.434;2022-12-07T14:37:42;96995.56;;;10.23;72.30
63568;BME280;49715;42.386;20.434;2022-12-07T14:40:14;96998.50;;;10.20;72.59
63568;BME280;49715;42.386;20.434;2022-12-07T14:42:40;97000.63;;;10.16;72.43
63568;BME280;49715;42.386;20.434;2022-12-07T14:45:14;97006.91;;;10.15;72.45
63568;BME280;49715;42.386;20.434;2022-12-07T14:47:41;97009.81;;;10.12;72.55
63568;BME280;49715;42.386;20.434;2022-12-07T14:50:08;97011.94;;;10.09;72.58
63568;BME280;49715;42.386;20.434;2022-12-07T14:52:51;97017.22;;;10.09;72.68
63568;BME280;49715;42.386;20.434;2022-12-07T14:55:39;97019.84;;;10.09;72.48
63568;BME280;49715;42.386;20.434;2022-12-07T14:58:05;97016.03;;;10.03;72.55
63568;BME280;49715;42.386;20.434;2022-12-07T15:00:31;97003.66;;;9.95;72.65
63568;BME280;49715;42.386;20.434;2022-12-07T15:03:01;97011.53;;;9.95;72.72
63568;BME280;49715;42.386;20.434;2022-12-07T15:05:28;97006.59;;;9.92;72.97
63568;BME280;49715;42.386;20.434;2022-12-07T15:07:55;97009.53;;;9.89;72.96
63568;BME280;49715;42.386;20.434;2022-12-07T15:10:23;97019.56;;;9.86;72.79
63568;BME280;49715;42.386;20.434;2022-12-07T15:12:50;97016.56;;;9.80;73.06
63568;BME280;49715;42.386;20.434;2022-12-07T15:15:17;97003.50;;;9.71;72.85